Alpine, TN

4:09 AM CST on February 14, 2016 (GMT -0600)
Jonesville | | Change Station
CLOSE
Current Station
Personal Weather Station
Location: Clarkrange, TN
Elevation: 1624 ft
Nearby Weather Stations
Active Advisory: Winter Weather Advisory

Elev 1624 ft 36.21 °N, 84.93 °W | Updated 15 seconds ago

Overcast
Overcast
18.9 °F
Feels Like 19 °F
N
0.0
Wind Variable Wind from NNW

Today
High -- | Low -- °F
--% Chance of Precip.
Yesterday
High -- | Low -- °F
Precip. -- in
Pressure 30.35 in
Visibility 10.0 miles
Clouds Overcast 6000 ft
Windchill 19 °F
Dew Point 9 °F
Humidity 66%
Rainfall 0.00 in
Snow Depth Not available.
6:29 AM 5:20 PM
Waxing Crescent, 40% visible
METAR KCSV 140953Z AUTO VRB03KT 10SM OVC060 M06/M16 A3028 RMK AO2 SLP275 T10611161
Pressure 30.35 in
Visibility 10.0 miles
Clouds Overcast 6000 ft
Windchill 19 °F
Dew Point 9 °F
Humidity 66%
Rainfall 0.00 in
Snow Depth Not available.
6:29 AM 5:20 PM
Waxing Crescent, 40% visible
METAR KCSV 140953Z AUTO VRB03KT 10SM OVC060 M06/M16 A3028 RMK AO2 SLP275 T10611161

10-Day Weather Forecast

Almanac

Astronomy

Feb. 14, 2016 Rise Set
Actual Time
Civil Twilight
Nautical Twilight
Astronomical Twilight
Moon
Length of Visible Light
Length of Day
Tomorrow will be .
, % of the Moon is Illuminated

Today's Extremes

State Highs State Lows

Community

WunderPhotos

Upload Photos

1,892,761 photos uploaded!

WunderBlog® & News

Nearby

Air Quality

  Air Quality AQ Index Pollutant
Not available.

Snow Depth

Station Depth Elevation

Earthquake Activity

City Distance Mag. Time & Date
Minimum magnitude displayed is 2.5.

Coastal Water Temperatures

Place Temperature

Stations

Nearby Weather Stations

Station Location Temp. Windchill Dew Point Humidity Wind Precip. Elev Updated Type
                   

Watches & Warnings

Winter Weather Advisory
Issued: 3:57 AM CST Feb. 14, 2016 – National Weather Service

... Winter Weather Advisory remains in effect from noon today to
6 am CST Monday...

* timing... noon Sunday until 6 am CST Monday.

* Main impact... hazardous travel conditions across the advisory
area due to a wintry mix of snow... sleet and freezing rain.

* Accumulations... 1 to 2 inches of snow... with around 3 inches for
the higher elevations and along the Kentucky border. Around one
tenth of an inch of ice from freezing rain is possible.

Precautionary/preparedness actions...

A Winter Weather Advisory means that periods of snow... sleet... or
freezing rain will cause travel difficulties. Be prepared for
slippery roads and limited visibilities... and use caution while
driving.



13